メインページ
METAR-TAF:

METAR-TAF

空港 :

ワシントン州, バージニア州, アメリカ合衆国

ワシントン・ダレス国際空港

緯度: 38-56-05N, 経度: 077-26-51W, 海抜: 95m

現時点の気象観測

当レポートは46分前の14:52(UTC)に作成
南/南東の風 7kt
気温 17°C
湿度 52%
気圧 1030 hPa
視程: 16.1km
晴天

METAR: KIAD 231452Z 15007KT 10SM CLR 17/07 A3042 RMK AO2 SLP299 T01670072 58002 $

時間: 11:38 (15:38 UTC)

予報

当レポートは1時間5分前の14:33(UTC)に作成
予報は23日の 15時(UTC)から 24日の 18時(UTC)まで有効
南東の風 8kt
視程: 10km
高度7000ftの雲はほとんどない
高度25000ftの千切れ雲あり
23日の 1700時(UTC)から
南東の風 10kt、最大17ktの突風を伴う
視程: 10km
高度6000ftの雲はほとんどない
高度20000ftの千切れ雲あり
24日の 0300時(UTC)から
南東の風 6kt
視程: 10km
高度10000ftの千切れ雲あり
24日の 0900時(UTC)から
東/南東の風 7kt
視程: 9.7km
高度3000ftの曇り
小雨

TAF: KIAD 231433Z 2315/2418 14008KT P6SM FEW070 BKN250 FM231700 13010G17KT P6SM FEW060 BKN200 FM240300 13006KT P6SM BKN100 FM240900 11007KT 6SM -RA OVC030

4,000以上の空港の気象観測と天気予報(METAR報とTAF報)

利用可能な観測所は地図上に黄色い丸と赤い丸で示す。

丸の上にカーソルを重ねると観測所名を参照できる。

次にクリックすると気象観測と天気予報を参照できる。

マップの切り替え:黒色「×」印の緑ボタンをクリックして拡大、「-」印の緑ボタンをクリックして縮小、緑色の三角印をクリックして隣りの地図に切り替え


METAR-TAF: